sensor_id;sensor_type;location;lat;lon;timestamp;temperature;humidity
75284;HTU21D;63877;48.702;44.594;2022-10-16T00:00:45;4.49;96.12
75284;HTU21D;63877;48.702;44.594;2022-10-16T00:03:12;4.47;96.22
75284;HTU21D;63877;48.702;44.594;2022-10-16T00:05:40;4.45;96.26
75284;HTU21D;63877;48.702;44.594;2022-10-16T00:08:07;4.44;96.34
75284;HTU21D;63877;48.702;44.594;2022-10-16T00:10:34;4.42;96.34
75284;HTU21D;63877;48.702;44.594;2022-10-16T00:13:00;4.41;96.39
75284;HTU21D;63877;48.702;44.594;2022-10-16T00:15:26;4.38;96.39
75284;HTU21D;63877;48.702;44.594;2022-10-16T00:17:52;4.35;96.36
75284;HTU21D;63877;48.702;44.594;2022-10-16T00:20:18;4.32;96.36
75284;HTU21D;63877;48.702;44.594;2022-10-16T00:22:44;4.30;96.36
75284;HTU21D;63877;48.702;44.594;2022-10-16T00:25:10;4.27;96.36
75284;HTU21D;63877;48.702;44.594;2022-10-16T00:27:35;4.23;96.38
75284;HTU21D;63877;48.702;44.594;2022-10-16T00:30:02;4.18;96.36
75284;HTU21D;63877;48.702;44.594;2022-10-16T00:32:28;4.15;96.40
75284;HTU21D;63877;48.702;44.594;2022-10-16T00:34:55;4.13;96.40
75284;HTU21D;63877;48.702;44.594;2022-10-16T00:37:21;4.10;96.46
75284;HTU21D;63877;48.702;44.594;2022-10-16T00:39:47;4.07;96.47
75284;HTU21D;63877;48.702;44.594;2022-10-16T00:42:17;4.05;96.41
75284;HTU21D;63877;48.702;44.594;2022-10-16T00:47:26;3.95;96.47
75284;HTU21D;63877;48.702;44.594;2022-10-16T00:50:00;3.91;96.55
75284;HTU21D;63877;48.702;44.594;2022-10-16T00:52:28;3.89;96.57
75284;HTU21D;63877;48.702;44.594;2022-10-16T00:54:54;3.87;96.58
75284;HTU21D;63877;48.702;44.594;2022-10-16T00:57:21;3.85;96.62
75284;HTU21D;63877;48.702;44.594;2022-10-16T00:59:47;3.82;96.57
75284;HTU21D;63877;48.702;44.594;2022-10-16T01:02:15;3.79;96.61
75284;HTU21D;63877;48.702;44.594;2022-10-16T01:04:47;3.78;96.63
75284;HTU21D;63877;48.702;44.594;2022-10-16T01:15:55;3.67;96.60
75284;HTU21D;63877;48.702;44.594;2022-10-16T01:18:35;3.63;96.62
75284;HTU21D;63877;48.702;44.594;2022-10-16T01:21:50;3.61;96.62
75284;HTU21D;63877;48.702;44.594;2022-10-16T01:24:27;3.59;96.60
75284;HTU21D;63877;48.702;44.594;2022-10-16T01:29:42;3.50;96.60
75284;HTU21D;63877;48.702;44.594;2022-10-16T01:35:19;3.44;96.60
75284;HTU21D;63877;48.702;44.594;2022-10-16T01:37:55;3.39;96.60
75284;HTU21D;63877;48.702;44.594;2022-10-16T01:40:26;3.35;96.58
75284;HTU21D;63877;48.702;44.594;2022-10-16T01:42:56;3.33;96.63
75284;HTU21D;63877;48.702;44.594;2022-10-16T01:45:24;3.29;96.59
75284;HTU21D;63877;48.702;44.594;2022-10-16T01:47:52;3.26;96.61
75284;HTU21D;63877;48.702;44.594;2022-10-16T01:50:19;3.23;96.65
75284;HTU21D;63877;48.702;44.594;2022-10-16T01:52:48;3.21;96.69
75284;HTU21D;63877;48.702;44.594;2022-10-16T01:55:21;3.20;96.68
75284;HTU21D;63877;48.702;44.594;2022-10-16T01:57:49;3.16;96.71
75284;HTU21D;63877;48.702;44.594;2022-10-16T02:00:19;3.12;96.71
75284;HTU21D;63877;48.702;44.594;2022-10-16T02:02:47;3.12;96.76
75284;HTU21D;63877;48.702;44.594;2022-10-16T02:07:50;3.04;96.79
75284;HTU21D;63877;48.702;44.594;2022-10-16T02:10:16;3.01;96.78
75284;HTU21D;63877;48.702;44.594;2022-10-16T02:12:49;3.00;96.83
75284;HTU21D;63877;48.702;44.594;2022-10-16T02:15:16;2.97;96.84
75284;HTU21D;63877;48.702;44.594;2022-10-16T02:17:42;2.94;96.83
75284;HTU21D;63877;48.702;44.594;2022-10-16T02:20:09;2.91;96.83
75284;HTU21D;63877;48.702;44.594;2022-10-16T02:22:42;2.88;96.79
75284;HTU21D;63877;48.702;44.594;2022-10-16T02:25:27;2.85;96.82
75284;HTU21D;63877;48.702;44.594;2022-10-16T02:28:24;2.82;96.78
75284;HTU21D;63877;48.702;44.594;2022-10-16T02:31:04;2.80;96.84
75284;HTU21D;63877;48.702;44.594;2022-10-16T02:33:32;2.79;96.89
75284;HTU21D;63877;48.702;44.594;2022-10-16T02:35:59;2.76;96.97
75284;HTU21D;63877;48.702;44.594;2022-10-16T02:38:25;2.74;97.00
75284;HTU21D;63877;48.702;44.594;2022-10-16T02:40:52;2.73;97.03
75284;HTU21D;63877;48.702;44.594;2022-10-16T02:43:19;2.69;97.07
75284;HTU21D;63877;48.702;44.594;2022-10-16T02:45:45;2.68;97.06
75284;HTU21D;63877;48.702;44.594;2022-10-16T02:48:11;2.66;97.10
75284;HTU21D;63877;48.702;44.594;2022-10-16T02:50:37;2.62;97.12
75284;HTU21D;63877;48.702;44.594;2022-10-16T02:53:03;2.59;97.14
75284;HTU21D;63877;48.702;44.594;2022-10-16T02:55:28;2.56;97.16
75284;HTU21D;63877;48.702;44.594;2022-10-16T02:57:55;2.55;97.18
75284;HTU21D;63877;48.702;44.594;2022-10-16T03:00:20;2.53;97.21
75284;HTU21D;63877;48.702;44.594;2022-10-16T03:02:46;2.52;97.24
75284;HTU21D;63877;48.702;44.594;2022-10-16T03:05:13;2.49;97.28
75284;HTU21D;63877;48.702;44.594;2022-10-16T03:07:39;2.46;97.24
75284;HTU21D;63877;48.702;44.594;2022-10-16T03:10:05;2.42;97.20
75284;HTU21D;63877;48.702;44.594;2022-10-16T03:12:32;2.36;97.17
75284;HTU21D;63877;48.702;44.594;2022-10-16T03:14:58;2.32;97.23
75284;HTU21D;63877;48.702;44.594;2022-10-16T03:17:24;2.32;97.24
75284;HTU21D;63877;48.702;44.594;2022-10-16T03:19:50;2.30;97.29
75284;HTU21D;63877;48.702;44.594;2022-10-16T03:22:16;2.30;97.38
75284;HTU21D;63877;48.702;44.594;2022-10-16T03:24:42;2.30;97.40
75284;HTU21D;63877;48.702;44.594;2022-10-16T03:27:08;2.31;97.39
75284;HTU21D;63877;48.702;44.594;2022-10-16T03:29:34;2.29;97.40
75284;HTU21D;63877;48.702;44.594;2022-10-16T03:32:00;2.30;97.42
75284;HTU21D;63877;48.702;44.594;2022-10-16T03:34:26;2.28;97.41
75284;HTU21D;63877;48.702;44.594;2022-10-16T03:36:53;2.28;97.42
75284;HTU21D;63877;48.702;44.594;2022-10-16T03:39:19;2.29;97.41
75284;HTU21D;63877;48.702;44.594;2022-10-16T03:41:45;2.26;97.39
75284;HTU21D;63877;48.702;44.594;2022-10-16T03:44:14;2.25;97.39
75284;HTU21D;63877;48.702;44.594;2022-10-16T03:46:41;2.26;97.44
75284;HTU21D;63877;48.702;44.594;2022-10-16T03:49:07;2.24;97.45
75284;HTU21D;63877;48.702;44.594;2022-10-16T03:51:33;2.24;97.45
75284;HTU21D;63877;48.702;44.594;2022-10-16T03:53:59;2.23;97.52
75284;HTU21D;63877;48.702;44.594;2022-10-16T03:56:25;2.25;97.57
75284;HTU21D;63877;48.702;44.594;2022-10-16T03:58:51;2.27;97.59
75284;HTU21D;63877;48.702;44.594;2022-10-16T04:01:17;2.27;97.63
75284;HTU21D;63877;48.702;44.594;2022-10-16T04:03:43;2.29;97.65
75284;HTU21D;63877;48.702;44.594;2022-10-16T04:06:09;2.30;97.71
75284;HTU21D;63877;48.702;44.594;2022-10-16T04:08:35;2.31;97.71
75284;HTU21D;63877;48.702;44.594;2022-10-16T04:11:03;2.34;97.74
75284;HTU21D;63877;48.702;44.594;2022-10-16T04:13:29;2.35;97.78
75284;HTU21D;63877;48.702;44.594;2022-10-16T04:15:55;2.39;97.84
75284;HTU21D;63877;48.702;44.594;2022-10-16T04:18:21;2.41;97.86
75284;HTU21D;63877;48.702;44.594;2022-10-16T04:20:47;2.45;97.94
75284;HTU21D;63877;48.702;44.594;2022-10-16T04:23:13;2.50;98.00
75284;HTU21D;63877;48.702;44.594;2022-10-16T04:25:39;2.54;98.02
75284;HTU21D;63877;48.702;44.594;2022-10-16T04:28:05;2.56;98.04
75284;HTU21D;63877;48.702;44.594;2022-10-16T04:30:31;2.59;98.03
75284;HTU21D;63877;48.702;44.594;2022-10-16T04:32:59;2.62;98.04
75284;HTU21D;63877;48.702;44.594;2022-10-16T04:35:25;2.65;98.08
75284;HTU21D;63877;48.702;44.594;2022-10-16T04:37:51;2.71;98.11
75284;HTU21D;63877;48.702;44.594;2022-10-16T04:40:17;2.78;98.19
75284;HTU21D;63877;48.702;44.594;2022-10-16T04:42:43;2.84;98.26
75284;HTU21D;63877;48.702;44.594;2022-10-16T04:45:10;2.93;98.30
75284;HTU21D;63877;48.702;44.594;2022-10-16T04:47:36;3.02;98.41
75284;HTU21D;63877;48.702;44.594;2022-10-16T04:50:03;3.10;98.45
75284;HTU21D;63877;48.702;44.594;2022-10-16T04:52:29;3.16;98.52
75284;HTU21D;63877;48.702;44.594;2022-10-16T04:54:57;3.25;98.55
75284;HTU21D;63877;48.702;44.594;2022-10-16T04:57:27;3.33;98.58
75284;HTU21D;63877;48.702;44.594;2022-10-16T04:59:53;3.42;98.64
75284;HTU21D;63877;48.702;44.594;2022-10-16T05:02:19;3.52;98.68
75284;HTU21D;63877;48.702;44.594;2022-10-16T05:04:45;3.59;98.74
75284;HTU21D;63877;48.702;44.594;2022-10-16T05:07:11;3.70;98.77
75284;HTU21D;63877;48.702;44.594;2022-10-16T05:09:37;3.78;98.81
75284;HTU21D;63877;48.702;44.594;2022-10-16T05:12:03;3.87;98.87
75284;HTU21D;63877;48.702;44.594;2022-10-16T05:14:29;3.97;98.90
75284;HTU21D;63877;48.702;44.594;2022-10-16T05:16:55;4.05;98.93
75284;HTU21D;63877;48.702;44.594;2022-10-16T05:19:21;4.14;98.95
75284;HTU21D;63877;48.702;44.594;2022-10-16T05:21:47;4.24;99.00
75284;HTU21D;63877;48.702;44.594;2022-10-16T05:24:13;4.33;99.06
75284;HTU21D;63877;48.702;44.594;2022-10-16T05:26:39;4.42;99.06
75284;HTU21D;63877;48.702;44.594;2022-10-16T05:29:05;4.49;99.09
75284;HTU21D;63877;48.702;44.594;2022-10-16T05:31:31;4.58;99.12
75284;HTU21D;63877;48.702;44.594;2022-10-16T05:34:01;4.65;99.19
75284;HTU21D;63877;48.702;44.594;2022-10-16T05:36:27;4.74;99.19
75284;HTU21D;63877;48.702;44.594;2022-10-16T05:38:53;4.82;99.22
75284;HTU21D;63877;48.702;44.594;2022-10-16T05:41:19;4.90;99.22
75284;HTU21D;63877;48.702;44.594;2022-10-16T05:43:47;4.96;99.22
75284;HTU21D;63877;48.702;44.594;2022-10-16T05:46:14;5.07;99.26
75284;HTU21D;63877;48.702;44.594;2022-10-16T05:48:40;5.15;99.30
75284;HTU21D;63877;48.702;44.594;2022-10-16T05:51:08;5.23;99.34
75284;HTU21D;63877;48.702;44.594;2022-10-16T05:53:36;5.33;99.36
75284;HTU21D;63877;48.702;44.594;2022-10-16T05:56:03;5.42;99.38
75284;HTU21D;63877;48.702;44.594;2022-10-16T05:58:32;5.51;99.41
75284;HTU21D;63877;48.702;44.594;2022-10-16T06:01:01;5.61;99.43
75284;HTU21D;63877;48.702;44.594;2022-10-16T06:03:28;5.69;99.46
75284;HTU21D;63877;48.702;44.594;2022-10-16T06:05:54;5.77;99.46
75284;HTU21D;63877;48.702;44.594;2022-10-16T06:08:21;5.85;99.51
75284;HTU21D;63877;48.702;44.594;2022-10-16T06:10:48;5.94;99.49
75284;HTU21D;63877;48.702;44.594;2022-10-16T06:13:15;6.01;99.49
75284;HTU21D;63877;48.702;44.594;2022-10-16T06:15:42;6.11;99.55
75284;HTU21D;63877;48.702;44.594;2022-10-16T06:18:09;6.19;99.58
75284;HTU21D;63877;48.702;44.594;2022-10-16T06:20:35;6.25;99.59
75284;HTU21D;63877;48.702;44.594;2022-10-16T06:23:02;6.31;99.58
75284;HTU21D;63877;48.702;44.594;2022-10-16T06:25:30;6.38;99.59
75284;HTU21D;63877;48.702;44.594;2022-10-16T06:27:56;6.45;99.61
75284;HTU21D;63877;48.702;44.594;2022-10-16T06:30:22;6.52;99.62
75284;HTU21D;63877;48.702;44.594;2022-10-16T06:32:48;6.59;99.64
75284;HTU21D;63877;48.702;44.594;2022-10-16T06:35:14;6.68;99.64
75284;HTU21D;63877;48.702;44.594;2022-10-16T06:37:40;6.75;99.69
75284;HTU21D;63877;48.702;44.594;2022-10-16T06:40:06;6.85;99.67
75284;HTU21D;63877;48.702;44.594;2022-10-16T06:42:32;6.94;99.74
75284;HTU21D;63877;48.702;44.594;2022-10-16T06:44:58;7.03;99.74
75284;HTU21D;63877;48.702;44.594;2022-10-16T06:47:24;7.11;99.75
75284;HTU21D;63877;48.702;44.594;2022-10-16T06:49:50;7.19;99.75
75284;HTU21D;63877;48.702;44.594;2022-10-16T06:52:16;7.28;99.75
75284;HTU21D;63877;48.702;44.594;2022-10-16T06:54:42;7.35;99.79
75284;HTU21D;63877;48.702;44.594;2022-10-16T06:57:08;7.48;99.80
75284;HTU21D;63877;48.702;44.594;2022-10-16T06:59:34;7.67;99.87
75284;HTU21D;63877;48.702;44.594;2022-10-16T07:02:00;7.93;99.85
75284;HTU21D;63877;48.702;44.594;2022-10-16T07:04:26;8.23;99.86
75284;HTU21D;63877;48.702;44.594;2022-10-16T07:06:52;8.53;99.93
75284;HTU21D;63877;48.702;44.594;2022-10-16T07:09:18;8.82;100.04
75284;HTU21D;63877;48.702;44.594;2022-10-16T07:11:44;9.11;100.18
75284;HTU21D;63877;48.702;44.594;2022-10-16T07:14:16;9.38;100.31
75284;HTU21D;63877;48.702;44.594;2022-10-16T07:16:42;9.62;100.40
75284;HTU21D;63877;48.702;44.594;2022-10-16T07:19:09;9.91;100.52
75284;HTU21D;63877;48.702;44.594;2022-10-16T07:21:37;10.18;100.68
75284;HTU21D;63877;48.702;44.594;2022-10-16T07:24:11;10.48;100.83
75284;HTU21D;63877;48.702;44.594;2022-10-16T07:26:39;10.85;101.03
75284;HTU21D;63877;48.702;44.594;2022-10-16T07:29:17;11.20;101.38
75284;HTU21D;63877;48.702;44.594;2022-10-16T07:31:43;11.60;101.70
75284;HTU21D;63877;48.702;44.594;2022-10-16T07:34:13;11.97;101.95
75284;HTU21D;63877;48.702;44.594;2022-10-16T07:36:40;12.29;102.34
75284;HTU21D;63877;48.702;44.594;2022-10-16T07:39:06;12.56;102.51
75284;HTU21D;63877;48.702;44.594;2022-10-16T07:41:32;12.82;102.67
75284;HTU21D;63877;48.702;44.594;2022-10-16T07:44:03;13.05;102.87
75284;HTU21D;63877;48.702;44.594;2022-10-16T07:46:29;13.20;103.11
75284;HTU21D;63877;48.702;44.594;2022-10-16T07:48:56;13.31;103.27
75284;HTU21D;63877;48.702;44.594;2022-10-16T07:51:24;13.51;103.50
75284;HTU21D;63877;48.702;44.594;2022-10-16T07:53:51;13.73;103.59
75284;HTU21D;63877;48.702;44.594;2022-10-16T07:56:18;14.05;103.92
75284;HTU21D;63877;48.702;44.594;2022-10-16T07:58:44;14.21;104.17
75284;HTU21D;63877;48.702;44.594;2022-10-16T08:01:13;14.29;104.20
75284;HTU21D;63877;48.702;44.594;2022-10-16T08:03:44;14.42;104.19
75284;HTU21D;63877;48.702;44.594;2022-10-16T08:06:10;14.56;104.16
75284;HTU21D;63877;48.702;44.594;2022-10-16T08:08:36;14.73;104.12
75284;HTU21D;63877;48.702;44.594;2022-10-16T08:11:02;15.08;104.12
75284;HTU21D;63877;48.702;44.594;2022-10-16T08:13:30;15.33;104.17
75284;HTU21D;63877;48.702;44.594;2022-10-16T08:15:56;15.54;104.20
75284;HTU21D;63877;48.702;44.594;2022-10-16T08:18:22;15.70;104.24
75284;HTU21D;63877;48.702;44.594;2022-10-16T08:20:58;15.99;104.48
75284;HTU21D;63877;48.702;44.594;2022-10-16T08:23:24;16.31;104.65
75284;HTU21D;63877;48.702;44.594;2022-10-16T08:25:55;16.57;105.08
75284;HTU21D;63877;48.702;44.594;2022-10-16T08:28:22;16.77;105.21
75284;HTU21D;63877;48.702;44.594;2022-10-16T08:30:48;16.81;105.20
75284;HTU21D;63877;48.702;44.594;2022-10-16T08:33:14;16.84;105.09
75284;HTU21D;63877;48.702;44.594;2022-10-16T08:35:40;16.91;104.95
75284;HTU21D;63877;48.702;44.594;2022-10-16T08:38:07;16.96;104.75
75284;HTU21D;63877;48.702;44.594;2022-10-16T08:40:34;17.04;105.34
75284;HTU21D;63877;48.702;44.594;2022-10-16T08:48:32;17.20;104.79
75284;HTU21D;63877;48.702;44.594;2022-10-16T08:51:02;17.45;104.27
75284;HTU21D;63877;48.702;44.594;2022-10-16T08:53:33;17.81;104.06
75284;HTU21D;63877;48.702;44.594;2022-10-16T08:56:02;18.06;104.09
75284;HTU21D;63877;48.702;44.594;2022-10-16T08:58:30;18.22;103.43
75284;HTU21D;63877;48.702;44.594;2022-10-16T09:01:00;18.49;103.34
75284;HTU21D;63877;48.702;44.594;2022-10-16T09:06:24;19.08;103.00
75284;HTU21D;63877;48.702;44.594;2022-10-16T09:09:02;19.38;102.81
75284;HTU21D;63877;48.702;44.594;2022-10-16T09:11:53;19.24;102.29
75284;HTU21D;63877;48.702;44.594;2022-10-16T09:17:22;19.54;101.62
75284;HTU21D;63877;48.702;44.594;2022-10-16T09:22:48;19.92;102.36
75284;HTU21D;63877;48.702;44.594;2022-10-16T09:25:16;20.01;102.70
75284;HTU21D;63877;48.702;44.594;2022-10-16T09:27:45;20.01;102.54
75284;HTU21D;63877;48.702;44.594;2022-10-16T09:30:16;20.10;102.12
75284;HTU21D;63877;48.702;44.594;2022-10-16T09:32:45;20.06;101.54
75284;HTU21D;63877;48.702;44.594;2022-10-16T09:35:18;20.17;101.51
75284;HTU21D;63877;48.702;44.594;2022-10-16T09:37:47;20.33;101.47
75284;HTU21D;63877;48.702;44.594;2022-10-16T09:40:26;20.32;101.51
75284;HTU21D;63877;48.702;44.594;2022-10-16T09:43:05;19.91;100.07
75284;HTU21D;63877;48.702;44.594;2022-10-16T09:45:32;19.88;99.78
75284;HTU21D;63877;48.702;44.594;2022-10-16T09:48:01;19.95;99.74
75284;HTU21D;63877;48.702;44.594;2022-10-16T09:50:35;20.26;100.07
75284;HTU21D;63877;48.702;44.594;2022-10-16T09:53:12;20.73;100.52
75284;HTU21D;63877;48.702;44.594;2022-10-16T09:55:50;21.06;100.59
75284;HTU21D;63877;48.702;44.594;2022-10-16T09:58:16;21.21;100.89
75284;HTU21D;63877;48.702;44.594;2022-10-16T10:00:49;21.24;100.80
75284;HTU21D;63877;48.702;44.594;2022-10-16T10:03:40;21.20;100.19
75284;HTU21D;63877;48.702;44.594;2022-10-16T10:06:25;21.04;100.25
75284;HTU21D;63877;48.702;44.594;2022-10-16T10:14:38;21.73;99.90
75284;HTU21D;63877;48.702;44.594;2022-10-16T10:30:37;22.84;98.64
75284;HTU21D;63877;48.702;44.594;2022-10-16T10:33:20;23.05;98.28
75284;HTU21D;63877;48.702;44.594;2022-10-16T10:38:54;23.10;96.89
75284;HTU21D;63877;48.702;44.594;2022-10-16T10:41:39;23.36;97.18
75284;HTU21D;63877;48.702;44.594;2022-10-16T10:49:37;23.77;95.91
75284;HTU21D;63877;48.702;44.594;2022-10-16T10:54:49;23.64;95.72
75284;HTU21D;63877;48.702;44.594;2022-10-16T10:57:57;23.71;96.05
75284;HTU21D;63877;48.702;44.594;2022-10-16T11:06:16;23.66;95.01
75284;HTU21D;63877;48.702;44.594;2022-10-16T11:08:49;23.94;95.38
75284;HTU21D;63877;48.702;44.594;2022-10-16T11:11:24;24.11;94.52
75284;HTU21D;63877;48.702;44.594;2022-10-16T11:14:20;24.29;95.01
75284;HTU21D;63877;48.702;44.594;2022-10-16T11:24:53;23.83;93.99
75284;HTU21D;63877;48.702;44.594;2022-10-16T11:27:49;23.86;94.78
75284;HTU21D;63877;48.702;44.594;2022-10-16T11:30:25;24.11;94.37
75284;HTU21D;63877;48.702;44.594;2022-10-16T11:38:31;24.06;93.21
75284;HTU21D;63877;48.702;44.594;2022-10-16T11:41:03;23.40;92.34
75284;HTU21D;63877;48.702;44.594;2022-10-16T11:43:39;22.93;93.55
75284;HTU21D;63877;48.702;44.594;2022-10-16T11:46:26;23.02;94.05
75284;HTU21D;63877;48.702;44.594;2022-10-16T11:49:26;23.25;93.91
75284;HTU21D;63877;48.702;44.594;2022-10-16T11:51:57;23.45;93.63
75284;HTU21D;63877;48.702;44.594;2022-10-16T11:57:20;22.99;92.87
75284;HTU21D;63877;48.702;44.594;2022-10-16T12:00:00;22.81;93.36
75284;HTU21D;63877;48.702;44.594;2022-10-16T12:10:26;21.83;94.35
75284;HTU21D;63877;48.702;44.594;2022-10-16T12:12:52;21.92;94.54
75284;HTU21D;63877;48.702;44.594;2022-10-16T12:15:22;22.02;94.53
75284;HTU21D;63877;48.702;44.594;2022-10-16T12:17:49;21.91;94.22
75284;HTU21D;63877;48.702;44.594;2022-10-16T12:23:02;21.70;94.46
75284;HTU21D;63877;48.702;44.594;2022-10-16T12:30:35;20.74;96.01
75284;HTU21D;63877;48.702;44.594;2022-10-16T12:33:03;20.27;96.25
75284;HTU21D;63877;48.702;44.594;2022-10-16T12:35:35;19.82;96.52
75284;HTU21D;63877;48.702;44.594;2022-10-16T12:38:16;19.41;96.88
75284;HTU21D;63877;48.702;44.594;2022-10-16T12:40:43;19.07;97.05
75284;HTU21D;63877;48.702;44.594;2022-10-16T12:48:36;18.58;98.10
75284;HTU21D;63877;48.702;44.594;2022-10-16T12:51:24;18.67;98.64
75284;HTU21D;63877;48.702;44.594;2022-10-16T12:54:11;18.82;99.09
75284;HTU21D;63877;48.702;44.594;2022-10-16T13:10:37;17.61;98.87
75284;HTU21D;63877;48.702;44.594;2022-10-16T13:21:38;16.74;99.00
75284;HTU21D;63877;48.702;44.594;2022-10-16T13:27:07;16.69;99.37
75284;HTU21D;63877;48.702;44.594;2022-10-16T13:29:35;16.91;100.03
75284;HTU21D;63877;48.702;44.594;2022-10-16T13:32:07;16.87;100.16
75284;HTU21D;63877;48.702;44.594;2022-10-16T13:34:44;16.61;99.89
75284;HTU21D;63877;48.702;44.594;2022-10-16T13:37:19;16.27;99.59
75284;HTU21D;63877;48.702;44.594;2022-10-16T13:39:45;16.00;99.41
75284;HTU21D;63877;48.702;44.594;2022-10-16T13:42:26;15.75;99.42
75284;HTU21D;63877;48.702;44.594;2022-10-16T13:44:55;15.54;99.43
75284;HTU21D;63877;48.702;44.594;2022-10-16T13:47:29;15.33;99.47
75284;HTU21D;63877;48.702;44.594;2022-10-16T13:50:12;15.12;99.45
75284;HTU21D;63877;48.702;44.594;2022-10-16T13:52:39;14.93;99.46
75284;HTU21D;63877;48.702;44.594;2022-10-16T13:57:37;14.60;99.55
75284;HTU21D;63877;48.702;44.594;2022-10-16T14:00:25;14.49;99.63
75284;HTU21D;63877;48.702;44.594;2022-10-16T14:03:01;14.37;99.77
75284;HTU21D;63877;48.702;44.594;2022-10-16T14:05:27;14.29;99.89
75284;HTU21D;63877;48.702;44.594;2022-10-16T14:07:54;14.18;99.95
75284;HTU21D;63877;48.702;44.594;2022-10-16T14:10:25;14.04;99.98
75284;HTU21D;63877;48.702;44.594;2022-10-16T14:13:04;13.86;99.93
75284;HTU21D;63877;48.702;44.594;2022-10-16T14:15:32;13.69;99.89
75284;HTU21D;63877;48.702;44.594;2022-10-16T14:18:00;13.54;99.91
75284;HTU21D;63877;48.702;44.594;2022-10-16T14:20:28;13.39;99.87
75284;HTU21D;63877;48.702;44.594;2022-10-16T14:23:16;13.27;99.90
75284;HTU21D;63877;48.702;44.594;2022-10-16T14:25:44;13.11;99.95
75284;HTU21D;63877;48.702;44.594;2022-10-16T14:28:19;13.02;99.97
75284;HTU21D;63877;48.702;44.594;2022-10-16T14:30:55;12.90;100.04
75284;HTU21D;63877;48.702;44.594;2022-10-16T14:38:38;12.60;100.03
75284;HTU21D;63877;48.702;44.594;2022-10-16T14:41:05;12.51;100.03
75284;HTU21D;63877;48.702;44.594;2022-10-16T14:46:02;12.35;100.07
75284;HTU21D;63877;48.702;44.594;2022-10-16T14:48:29;12.28;100.10
75284;HTU21D;63877;48.702;44.594;2022-10-16T14:50:55;12.22;100.14
75284;HTU21D;63877;48.702;44.594;2022-10-16T14:53:22;12.14;100.16
75284;HTU21D;63877;48.702;44.594;2022-10-16T14:55:48;12.07;100.16
75284;HTU21D;63877;48.702;44.594;2022-10-16T14:58:21;11.99;100.22
75284;HTU21D;63877;48.702;44.594;2022-10-16T15:00:48;11.89;100.24
75284;HTU21D;63877;48.702;44.594;2022-10-16T15:03:15;11.81;100.22
75284;HTU21D;63877;48.702;44.594;2022-10-16T15:05:41;11.74;100.26
75284;HTU21D;63877;48.702;44.594;2022-10-16T15:08:07;11.68;100.34
75284;HTU21D;63877;48.702;44.594;2022-10-16T15:10:38;11.61;100.41
75284;HTU21D;63877;48.702;44.594;2022-10-16T15:13:05;11.53;100.40
75284;HTU21D;63877;48.702;44.594;2022-10-16T15:15:41;11.44;100.37
75284;HTU21D;63877;48.702;44.594;2022-10-16T15:18:07;11.34;100.28
75284;HTU21D;63877;48.702;44.594;2022-10-16T15:20:35;11.30;100.36
75284;HTU21D;63877;48.702;44.594;2022-10-16T15:23:09;11.25;100.41
75284;HTU21D;63877;48.702;44.594;2022-10-16T15:25:46;11.23;100.51
75284;HTU21D;63877;48.702;44.594;2022-10-16T15:28:13;11.16;100.55
75284;HTU21D;63877;48.702;44.594;2022-10-16T15:30:40;11.09;100.52
75284;HTU21D;63877;48.702;44.594;2022-10-16T15:33:15;11.00;100.45
75284;HTU21D;63877;48.702;44.594;2022-10-16T15:35:41;10.92;100.41
75284;HTU21D;63877;48.702;44.594;2022-10-16T15:38:11;10.87;100.47
75284;HTU21D;63877;48.702;44.594;2022-10-16T15:40:38;10.85;100.60
75284;HTU21D;63877;48.702;44.594;2022-10-16T15:43:04;10.79;100.66
75284;HTU21D;63877;48.702;44.594;2022-10-16T15:45:30;10.72;100.65
75284;HTU21D;63877;48.702;44.594;2022-10-16T15:47:56;10.65;100.65
75284;HTU21D;63877;48.702;44.594;2022-10-16T15:50:22;10.59;100.70
75284;HTU21D;63877;48.702;44.594;2022-10-16T15:52:47;10.54;100.74
75284;HTU21D;63877;48.702;44.594;2022-10-16T15:55:15;10.48;100.77
75284;HTU21D;63877;48.702;44.594;2022-10-16T15:57:41;10.38;100.73
75284;HTU21D;63877;48.702;44.594;2022-10-16T16:00:13;10.30;100.72
75284;HTU21D;63877;48.702;44.594;2022-10-16T16:02:41;10.22;100.73
75284;HTU21D;63877;48.702;44.594;2022-10-16T16:05:08;10.16;100.74
75284;HTU21D;63877;48.702;44.594;2022-10-16T16:07:36;10.09;100.74
75284;HTU21D;63877;48.702;44.594;2022-10-16T16:10:04;10.01;100.70
75284;HTU21D;63877;48.702;44.594;2022-10-16T16:12:30;9.93;100.70
75284;HTU21D;63877;48.702;44.594;2022-10-16T16:14:56;9.85;100.66
75284;HTU21D;63877;48.702;44.594;2022-10-16T16:17:22;9.79;100.66
75284;HTU21D;63877;48.702;44.594;2022-10-16T16:19:50;9.71;100.63
75284;HTU21D;63877;48.702;44.594;2022-10-16T16:22:16;9.62;100.58
75284;HTU21D;63877;48.702;44.594;2022-10-16T16:24:42;9.55;100.57
75284;HTU21D;63877;48.702;44.594;2022-10-16T16:27:08;9.49;100.59
75284;HTU21D;63877;48.702;44.594;2022-10-16T16:29:34;9.47;100.64
75284;HTU21D;63877;48.702;44.594;2022-10-16T16:32:00;9.40;100.69
75284;HTU21D;63877;48.702;44.594;2022-10-16T16:34:27;9.36;100.73
75284;HTU21D;63877;48.702;44.594;2022-10-16T16:36:55;9.30;100.77
75284;HTU21D;63877;48.702;44.594;2022-10-16T16:39:21;9.22;100.77
75284;HTU21D;63877;48.702;44.594;2022-10-16T16:41:47;9.15;100.70
75284;HTU21D;63877;48.702;44.594;2022-10-16T16:44:14;9.08;100.71
75284;HTU21D;63877;48.702;44.594;2022-10-16T16:46:41;9.04;100.75
75284;HTU21D;63877;48.702;44.594;2022-10-16T16:49:10;8.95;100.71
75284;HTU21D;63877;48.702;44.594;2022-10-16T16:51:37;8.87;100.61
75284;HTU21D;63877;48.702;44.594;2022-10-16T16:54:04;8.79;100.54
75284;HTU21D;63877;48.702;44.594;2022-10-16T16:56:30;8.72;100.38
75284;HTU21D;63877;48.702;44.594;2022-10-16T16:58:57;8.65;100.27
75284;HTU21D;63877;48.702;44.594;2022-10-16T17:01:24;8.60;100.25
75284;HTU21D;63877;48.702;44.594;2022-10-16T17:03:53;8.57;100.23
75284;HTU21D;63877;48.702;44.594;2022-10-16T17:06:21;8.57;100.32
75284;HTU21D;63877;48.702;44.594;2022-10-16T17:08:48;8.55;100.39
75284;HTU21D;63877;48.702;44.594;2022-10-16T17:11:17;8.51;100.40
75284;HTU21D;63877;48.702;44.594;2022-10-16T17:13:43;8.46;100.41
75284;HTU21D;63877;48.702;44.594;2022-10-16T17:16:10;8.39;100.36
75284;HTU21D;63877;48.702;44.594;2022-10-16T17:18:36;8.34;100.35
75284;HTU21D;63877;48.702;44.594;2022-10-16T17:21:05;8.23;100.26
75284;HTU21D;63877;48.702;44.594;2022-10-16T17:23:33;8.14;100.18
75284;HTU21D;63877;48.702;44.594;2022-10-16T17:26:10;8.05;100.11
75284;HTU21D;63877;48.702;44.594;2022-10-16T17:28:37;8.02;100.19
75284;HTU21D;63877;48.702;44.594;2022-10-16T17:31:17;8.00;100.31
75284;HTU21D;63877;48.702;44.594;2022-10-16T17:33:45;7.98;100.38
75284;HTU21D;63877;48.702;44.594;2022-10-16T17:36:11;7.94;100.36
75284;HTU21D;63877;48.702;44.594;2022-10-16T17:38:39;7.92;100.41
75284;HTU21D;63877;48.702;44.594;2022-10-16T17:41:19;7.89;100.41